createdAt,value
2023-01-21T00:00:32.774Z,7.07
2023-01-21T00:01:32.792Z,7.02
2023-01-21T00:02:32.859Z,7.11
2023-01-21T00:03:32.808Z,7.07
2023-01-21T00:04:32.524Z,7.06
2023-01-21T00:05:32.810Z,7.07
2023-01-21T00:06:32.816Z,7.07
2023-01-21T00:07:32.839Z,7.02
2023-01-21T00:08:32.610Z,7.06
2023-01-21T00:09:32.888Z,6.93
2023-01-21T00:10:32.617Z,7.02
2023-01-21T00:11:32.889Z,6.99
2023-01-21T00:12:32.902Z,6.96
2023-01-21T00:13:32.920Z,6.97
2023-01-21T00:14:32.675Z,6.93
2023-01-21T00:15:32.891Z,6.93
2023-01-21T00:16:32.770Z,6.89
2023-01-21T00:17:32.453Z,6.85
2023-01-21T00:18:35.007Z,6.88
2023-01-21T00:19:33.004Z,6.93
2023-01-21T00:20:32.754Z,6.81
2023-01-21T00:21:32.792Z,6.75
2023-01-21T00:22:33.061Z,6.84
2023-01-21T00:23:32.793Z,6.84
2023-01-21T00:24:33.086Z,6.82
2023-01-21T00:25:32.825Z,6.72
2023-01-21T00:26:33.104Z,6.72
2023-01-21T00:27:32.856Z,6.69
2023-01-21T00:28:33.135Z,6.7
2023-01-21T00:29:33.146Z,6.74
2023-01-21T00:30:32.982Z,6.67
2023-01-21T00:31:33.447Z,6.72
2023-01-21T00:32:33.257Z,6.72
2023-01-21T00:33:33.272Z,6.66
2023-01-21T00:34:33.235Z,6.64
2023-01-21T00:35:32.971Z,6.56
2023-01-21T00:36:32.991Z,6.6
2023-01-21T00:37:33.012Z,6.54
2023-01-21T00:38:33.274Z,6.62
2023-01-21T00:39:33.301Z,6.48
2023-01-21T00:40:33.300Z,6.44
2023-01-21T00:41:33.319Z,6.51
2023-01-21T00:42:33.329Z,6.45
2023-01-21T00:43:33.079Z,6.44
2023-01-21T00:44:33.374Z,6.52
2023-01-21T00:45:33.365Z,6.44
2023-01-21T00:46:33.646Z,6.49
2023-01-21T00:47:32.894Z,6.46
2023-01-21T00:48:33.506Z,6.48
2023-01-21T00:49:32.934Z,6.51
2023-01-21T00:50:33.178Z,6.42
2023-01-21T00:51:33.196Z,6.45
2023-01-21T00:52:33.479Z,6.48
2023-01-21T00:53:33.972Z,6.38
2023-01-21T00:54:33.215Z,6.33
2023-01-21T00:55:33.578Z,6.38
2023-01-21T00:56:33.846Z,6.38
2023-01-21T00:57:33.753Z,6.3
2023-01-21T00:58:33.929Z,6.33
2023-01-21T00:59:33.298Z,6.39
2023-01-21T01:00:33.597Z,6.26
2023-01-21T01:01:33.525Z,6.27
2023-01-21T01:02:33.740Z,6.19
2023-01-21T01:03:33.640Z,6.24
2023-01-21T01:04:33.697Z,6.24
2023-01-21T01:05:33.399Z,6.27
2023-01-21T01:06:33.696Z,6.14
2023-01-21T01:07:33.687Z,6.2
2023-01-21T01:08:33.709Z,6.12
2023-01-21T01:09:33.735Z,6.12
2023-01-21T01:10:33.487Z,6.12
2023-01-21T01:11:33.755Z,6.12
2023-01-21T01:12:33.515Z,6.2
2023-01-21T01:13:33.522Z,6.09
2023-01-21T01:14:33.779Z,6.14
2023-01-21T01:15:33.783Z,6.17
2023-01-21T01:16:33.829Z,6.05
2023-01-21T01:17:33.855Z,6.05
2023-01-21T01:18:33.885Z,6.07
2023-01-21T01:19:33.649Z,6.07
2023-01-21T01:20:33.912Z,6.07
2023-01-21T01:21:33.886Z,6.01
2023-01-21T01:22:33.638Z,5.98
2023-01-21T01:23:33.964Z,5.98
2023-01-21T01:24:33.662Z,5.94
2023-01-21T01:25:33.709Z,6.01
2023-01-21T01:26:33.974Z,5.87
2023-01-21T01:27:33.699Z,5.86
2023-01-21T01:28:34.001Z,5.9
2023-01-21T01:29:33.991Z,5.9
2023-01-21T01:30:34.392Z,5.89
2023-01-21T01:31:34.197Z,5.91
2023-01-21T01:32:34.050Z,5.89
2023-01-21T01:33:33.519Z,5.9
2023-01-21T01:34:34.061Z,5.89
2023-01-21T01:35:34.081Z,5.86
2023-01-21T01:36:34.137Z,5.82
2023-01-21T01:37:34.100Z,5.82
2023-01-21T01:38:34.111Z,5.84
2023-01-21T01:39:34.142Z,5.91
2023-01-21T01:40:33.890Z,5.87
2023-01-21T01:41:34.217Z,5.82
2023-01-21T01:42:34.220Z,5.83
2023-01-21T01:43:34.186Z,5.79
2023-01-21T01:44:34.219Z,5.82
2023-01-21T01:45:34.546Z,5.8
2023-01-21T01:46:34.472Z,5.8
2023-01-21T01:47:34.242Z,5.68
2023-01-21T01:48:34.010Z,5.72
2023-01-21T01:49:34.271Z,5.75
2023-01-21T01:50:34.475Z,5.75
2023-01-21T01:51:34.059Z,5.66
2023-01-21T01:52:34.395Z,5.66
2023-01-21T01:53:34.283Z,5.64
2023-01-21T01:54:34.373Z,5.71
2023-01-21T01:55:34.121Z,5.64
2023-01-21T01:56:34.369Z,5.68
2023-01-21T01:57:34.500Z,5.65
2023-01-21T01:58:34.396Z,5.62
2023-01-21T01:59:34.177Z,5.69
2023-01-21T02:00:34.162Z,5.64
2023-01-21T02:01:34.554Z,5.61
2023-01-21T02:02:34.548Z,5.56
2023-01-21T02:03:34.497Z,5.62
2023-01-21T02:04:33.986Z,5.56
2023-01-21T02:05:34.236Z,5.53
2023-01-21T02:06:34.516Z,5.59
2023-01-21T02:07:34.595Z,5.54
2023-01-21T02:08:34.442Z,5.48
2023-01-21T02:09:34.597Z,5.47
2023-01-21T02:10:34.570Z,5.46
2023-01-21T02:11:34.327Z,5.46
2023-01-21T02:12:34.604Z,5.59
2023-01-21T02:13:34.403Z,5.59
2023-01-21T02:14:34.625Z,5.62
2023-01-21T02:15:34.662Z,5.48
2023-01-21T02:16:34.586Z,5.5
2023-01-21T02:17:34.668Z,5.51
2023-01-21T02:18:34.679Z,5.56
2023-01-21T02:19:34.432Z,5.5
2023-01-21T02:20:34.695Z,5.44
2023-01-21T02:21:34.718Z,5.43
2023-01-21T02:22:34.760Z,5.46
2023-01-21T02:23:34.741Z,5.36
2023-01-21T02:24:34.811Z,5.38
2023-01-21T02:25:34.835Z,5.41
2023-01-21T02:26:34.802Z,5.35
2023-01-21T02:27:35.960Z,5.39
2023-01-21T02:28:34.580Z,5.39
2023-01-21T02:29:34.858Z,5.36
2023-01-21T02:30:34.890Z,5.3
2023-01-21T02:31:34.783Z,5.3
2023-01-21T02:32:34.880Z,5.18
2023-01-21T02:33:34.901Z,5.28
2023-01-21T02:34:34.916Z,5.29
2023-01-21T02:35:34.666Z,5.18
2023-01-21T02:36:34.937Z,5.2
2023-01-21T02:37:34.938Z,5.26
2023-01-21T02:38:34.712Z,5.26
2023-01-21T02:39:34.964Z,5.21
2023-01-21T02:40:35.044Z,5.21
2023-01-21T02:41:34.741Z,5.15
2023-01-21T02:42:35.005Z,5.26
2023-01-21T02:43:34.779Z,5.21
2023-01-21T02:44:34.571Z,5.14
2023-01-21T02:45:35.073Z,5.2
2023-01-21T02:46:35.284Z,5.18
2023-01-21T02:47:35.104Z,5.18
2023-01-21T02:48:35.112Z,5.12
2023-01-21T02:49:35.109Z,5.11
2023-01-21T02:50:35.136Z,5.17
2023-01-21T02:51:35.130Z,5.14
2023-01-21T02:52:34.881Z,5.2
2023-01-21T02:53:35.368Z,5.07
2023-01-21T02:54:35.180Z,5.14
2023-01-21T02:55:35.197Z,5.14
2023-01-21T02:56:35.001Z,5.17
2023-01-21T02:57:35.277Z,5.04
2023-01-21T02:58:35.232Z,5.05
2023-01-21T02:59:35.015Z,5.05
2023-01-21T03:00:35.074Z,5.07
2023-01-21T03:01:35.375Z,5.02
2023-01-21T03:02:35.300Z,5.04
2023-01-21T03:03:35.354Z,5.12
2023-01-21T03:04:35.052Z,5.11
2023-01-21T03:05:35.344Z,4.97
2023-01-21T03:06:35.145Z,4.97
2023-01-21T03:07:35.422Z,5.05
2023-01-21T03:08:35.126Z,4.94
2023-01-21T03:09:35.123Z,4.93
2023-01-21T03:10:35.130Z,5
2023-01-21T03:11:35.397Z,4.92
2023-01-21T03:12:35.488Z,5.04
2023-01-21T03:13:35.440Z,4.92
2023-01-21T03:14:35.450Z,5.02
2023-01-21T03:15:35.220Z,4.92
2023-01-21T03:16:35.632Z,4.93
2023-01-21T03:17:35.514Z,4.97
2023-01-21T03:18:35.500Z,4.93
2023-01-21T03:19:35.527Z,4.92
2023-01-21T03:20:35.519Z,4.89
2023-01-21T03:21:35.617Z,4.96
2023-01-21T03:22:35.563Z,4.92
2023-01-21T03:23:35.319Z,4.9
2023-01-21T03:24:35.586Z,4.86
2023-01-21T03:25:35.363Z,4.86
2023-01-21T03:26:35.625Z,4.82
2023-01-21T03:27:35.623Z,4.78
2023-01-21T03:28:35.711Z,4.84
2023-01-21T03:29:35.396Z,4.82
2023-01-21T03:30:35.884Z,4.74
2023-01-21T03:31:35.748Z,4.86
2023-01-21T03:32:35.689Z,4.74
2023-01-21T03:33:35.763Z,4.82
2023-01-21T03:34:35.756Z,4.78
2023-01-21T03:35:35.464Z,4.71
2023-01-21T03:36:35.751Z,4.78
2023-01-21T03:37:35.771Z,4.7
2023-01-21T03:38:35.779Z,4.7
2023-01-21T03:39:35.824Z,4.7
2023-01-21T03:40:35.539Z,4.7
2023-01-21T03:41:35.557Z,4.7
2023-01-21T03:42:36.129Z,4.63
2023-01-21T03:43:35.842Z,4.63
2023-01-21T03:44:35.920Z,4.63
2023-01-21T03:45:35.495Z,4.71
2023-01-21T03:46:35.636Z,4.63
2023-01-21T03:47:35.911Z,4.68
2023-01-21T03:48:35.942Z,4.66
2023-01-21T03:49:35.808Z,4.53
2023-01-21T03:50:35.944Z,4.58
2023-01-21T03:51:35.960Z,4.58
2023-01-21T03:52:35.966Z,4.52
2023-01-21T03:53:36.028Z,4.58
2023-01-21T03:54:35.997Z,4.48
2023-01-21T03:55:36.010Z,4.5
2023-01-21T03:56:35.771Z,4.59
2023-01-21T03:57:36.038Z,4.55
2023-01-21T03:58:35.797Z,4.49
2023-01-21T03:59:36.164Z,4.52
2023-01-21T04:00:36.208Z,4.53
2023-01-21T04:01:35.840Z,4.5
2023-01-21T04:02:36.201Z,4.55
2023-01-21T04:03:35.857Z,4.44
2023-01-21T04:04:36.125Z,4.52
2023-01-21T04:05:36.202Z,4.4
2023-01-21T04:06:35.936Z,4.41
2023-01-21T04:07:35.803Z,4.42
2023-01-21T04:08:36.200Z,4.4
2023-01-21T04:09:35.938Z,4.44
2023-01-21T04:10:36.207Z,4.44
2023-01-21T04:11:36.390Z,4.38
2023-01-21T04:12:35.986Z,4.32
2023-01-21T04:13:36.264Z,4.41
2023-01-21T04:14:36.049Z,4.41
2023-01-21T04:15:36.299Z,4.38
2023-01-21T04:16:36.354Z,4.28
2023-01-21T04:17:36.301Z,4.38
2023-01-21T04:18:36.194Z,4.37
2023-01-21T04:19:35.897Z,4.31
2023-01-21T04:20:36.093Z,4.31
2023-01-21T04:21:36.404Z,4.37
2023-01-21T04:22:36.381Z,4.45
2023-01-21T04:23:36.149Z,4.48
2023-01-21T04:24:39.425Z,4.32
2023-01-21T04:25:36.412Z,4.32
2023-01-21T04:26:36.169Z,4.28
2023-01-21T04:27:36.439Z,4.35
2023-01-21T04:28:36.455Z,4.38
2023-01-21T04:29:36.218Z,4.37
2023-01-21T04:30:36.642Z,4.26
2023-01-21T04:31:36.765Z,4.35
2023-01-21T04:32:36.313Z,4.32
2023-01-21T04:33:36.538Z,4.37
2023-01-21T04:34:36.549Z,4.24
2023-01-21T04:35:36.549Z,4.35
2023-01-21T04:36:36.557Z,4.31
2023-01-21T04:37:36.616Z,4.32
2023-01-21T04:38:36.330Z,4.37
2023-01-21T04:39:36.356Z,4.38
2023-01-21T04:40:36.639Z,4.24
2023-01-21T04:41:36.634Z,4.32
2023-01-21T04:42:36.649Z,4.28
2023-01-21T04:43:36.410Z,4.3
2023-01-21T04:44:36.694Z,4.26
2023-01-21T04:45:36.524Z,4.28
2023-01-21T04:46:36.442Z,4.24
2023-01-21T04:47:36.716Z,4.24
2023-01-21T04:48:36.776Z,4.2
2023-01-21T04:49:36.749Z,4.26
2023-01-21T04:50:36.760Z,4.31
2023-01-21T04:51:36.787Z,4.26
2023-01-21T04:52:36.521Z,4.16
2023-01-21T04:53:37.175Z,4.22
2023-01-21T04:54:36.809Z,4.23
2023-01-21T04:55:36.565Z,4.34
2023-01-21T04:56:36.824Z,4.2
2023-01-21T04:57:36.591Z,4.2
2023-01-21T04:58:36.866Z,4.26
2023-01-21T04:59:36.602Z,4.2
2023-01-21T05:00:36.626Z,4.23
2023-01-21T05:01:36.681Z,4.19
2023-01-21T05:02:36.686Z,4.17
2023-01-21T05:03:36.948Z,4.23
2023-01-21T05:04:36.992Z,4.22
2023-01-21T05:05:36.964Z,4.19
2023-01-21T05:06:36.997Z,4.23
2023-01-21T05:07:36.996Z,4.17
2023-01-21T05:08:36.778Z,4.19
2023-01-21T05:09:37.043Z,4.17
2023-01-21T05:10:37.026Z,4.2
2023-01-21T05:11:37.040Z,4.19
2023-01-21T05:12:37.069Z,4.17
2023-01-21T05:13:37.077Z,4.17
2023-01-21T05:14:37.077Z,4.17
2023-01-21T05:15:37.279Z,4.2
2023-01-21T05:16:36.958Z,4.19
2023-01-21T05:17:36.590Z,4.19
2023-01-21T05:18:37.125Z,4.13
2023-01-21T05:19:37.143Z,4.14
2023-01-21T05:20:37.297Z,4.17
2023-01-21T05:21:36.916Z,4.14
2023-01-21T05:22:37.183Z,4.08
2023-01-21T05:23:37.191Z,4.14
2023-01-21T05:24:37.216Z,4.16
2023-01-21T05:25:37.253Z,4.12
2023-01-21T05:26:36.982Z,4.17
2023-01-21T05:27:37.251Z,4.08
2023-01-21T05:28:37.262Z,4.17
2023-01-21T05:29:37.280Z,4.12
2023-01-21T05:30:40.012Z,4.16
2023-01-21T05:31:37.753Z,4.14
2023-01-21T05:32:37.322Z,4.17
2023-01-21T05:33:37.351Z,4.08
2023-01-21T05:34:37.355Z,4.17
2023-01-21T05:35:37.193Z,4.17
2023-01-21T05:36:37.431Z,4.14
2023-01-21T05:37:37.389Z,4.19
2023-01-21T05:38:37.378Z,4.13
2023-01-21T05:39:37.152Z,4.17
2023-01-21T05:40:37.289Z,4.12
2023-01-21T05:41:37.453Z,4.14
2023-01-21T05:42:37.443Z,4.14
2023-01-21T05:43:37.670Z,4.13
2023-01-21T05:44:37.206Z,4.13
2023-01-21T05:45:37.587Z,4.14
2023-01-21T05:46:37.488Z,4.14
2023-01-21T05:47:37.523Z,4.14
2023-01-21T05:48:37.286Z,4.06
2023-01-21T05:49:37.288Z,4.13
2023-01-21T05:50:37.550Z,4.17
2023-01-21T05:51:37.563Z,4.13
2023-01-21T05:52:37.653Z,4.13
2023-01-21T05:53:38.136Z,4.19
2023-01-21T05:54:37.730Z,4.14
2023-01-21T05:55:37.360Z,4.17
2023-01-21T05:56:37.657Z,4.14
2023-01-21T05:57:37.706Z,4.17
2023-01-21T05:58:37.653Z,4.22
2023-01-21T05:59:37.664Z,4.14
2023-01-21T06:00:37.427Z,4.2
2023-01-21T06:01:37.426Z,4.16
2023-01-21T06:02:37.637Z,4.1
2023-01-21T06:03:37.867Z,4.16
2023-01-21T06:04:37.831Z,4.16
2023-01-21T06:05:37.751Z,4.12
2023-01-21T06:06:37.768Z,4.17
2023-01-21T06:07:37.782Z,4.17
2023-01-21T06:08:37.853Z,4.16
2023-01-21T06:09:37.802Z,4.06
2023-01-21T06:10:37.816Z,4.04
2023-01-21T06:11:37.864Z,4.06
2023-01-21T06:12:37.857Z,4.14
2023-01-21T06:13:37.890Z,4.08
2023-01-21T06:14:37.869Z,4.05
2023-01-21T06:15:38.027Z,4.08
2023-01-21T06:16:37.639Z,4.05
2023-01-21T06:17:37.913Z,4.05
2023-01-21T06:18:37.397Z,4.04
2023-01-21T06:19:37.942Z,4.04
2023-01-21T06:20:37.948Z,4.05
2023-01-21T06:21:37.975Z,4.01
2023-01-21T06:22:37.975Z,3.99
2023-01-21T06:23:37.983Z,4.04
2023-01-21T06:24:38.078Z,3.99
2023-01-21T06:25:38.032Z,4.02
2023-01-21T06:26:38.021Z,4.06
2023-01-21T06:27:38.048Z,4.04
2023-01-21T06:28:37.794Z,4.06
2023-01-21T06:29:37.850Z,4.08
2023-01-21T06:30:38.094Z,4.01
2023-01-21T06:31:38.501Z,4.04
2023-01-21T06:32:38.123Z,4.01
2023-01-21T06:33:38.147Z,4.02
2023-01-21T06:34:38.128Z,4.01
2023-01-21T06:35:37.888Z,4.01
2023-01-21T06:36:38.158Z,4.02
2023-01-21T06:37:37.920Z,4.01
2023-01-21T06:38:38.187Z,4.08
2023-01-21T06:39:37.946Z,4.01
2023-01-21T06:40:38.269Z,3.99
2023-01-21T06:41:38.021Z,4.02
2023-01-21T06:42:38.251Z,4.02
2023-01-21T06:43:38.272Z,3.99
2023-01-21T06:44:38.277Z,4.05
2023-01-21T06:45:38.039Z,4.01
2023-01-21T06:46:41.337Z,4.02
2023-01-21T06:47:38.332Z,4.01
2023-01-21T06:48:38.056Z,4.04
2023-01-21T06:49:38.091Z,3.99
2023-01-21T06:50:38.084Z,4.02
2023-01-21T06:51:38.361Z,4.02
2023-01-21T06:52:37.869Z,4.04
2023-01-21T06:53:38.674Z,3.98
2023-01-21T06:54:38.445Z,4.01
2023-01-21T06:55:38.423Z,4.05
2023-01-21T06:56:38.497Z,3.98
2023-01-21T06:57:38.437Z,4.02
2023-01-21T06:58:38.197Z,3.98
2023-01-21T06:59:38.459Z,4.04
2023-01-21T07:00:38.485Z,3.98
2023-01-21T07:01:38.676Z,3.95
2023-01-21T07:02:38.419Z,3.98
2023-01-21T07:03:38.314Z,3.99
2023-01-21T07:04:38.641Z,4.01
2023-01-21T07:05:38.536Z,4.02
2023-01-21T07:06:38.574Z,4.01
2023-01-21T07:07:38.313Z,3.98
2023-01-21T07:08:38.594Z,3.94
2023-01-21T07:09:38.338Z,4.02
2023-01-21T07:10:38.349Z,4.04
2023-01-21T07:11:38.641Z,4.02
2023-01-21T07:12:38.700Z,4.02
2023-01-21T07:13:38.411Z,3.96
2023-01-21T07:14:38.675Z,4.01
2023-01-21T07:15:38.160Z,3.95
2023-01-21T07:16:38.188Z,3.95
2023-01-21T07:17:38.731Z,3.99
2023-01-21T07:18:38.732Z,4.01
2023-01-21T07:19:38.740Z,4.04
2023-01-21T07:20:40.674Z,3.91
2023-01-21T07:21:38.755Z,4.04
2023-01-21T07:22:38.672Z,3.95
2023-01-21T07:23:38.799Z,3.92
2023-01-21T07:24:38.806Z,3.94
2023-01-21T07:25:38.345Z,3.91
2023-01-21T07:26:38.855Z,3.91
2023-01-21T07:27:38.570Z,3.95
2023-01-21T07:28:38.898Z,3.95
2023-01-21T07:29:38.866Z,3.94
2023-01-21T07:30:38.898Z,3.88
2023-01-21T07:31:39.387Z,3.86
2023-01-21T07:32:38.928Z,3.94
2023-01-21T07:33:38.955Z,3.98
2023-01-21T07:34:38.940Z,3.92
2023-01-21T07:35:38.703Z,3.98
2023-01-21T07:36:38.703Z,3.92
2023-01-21T07:37:39.085Z,3.88
2023-01-21T07:38:38.986Z,3.92
2023-01-21T07:39:39.005Z,3.92
2023-01-21T07:40:38.762Z,3.92
2023-01-21T07:41:38.771Z,3.86
2023-01-21T07:42:39.046Z,3.87
2023-01-21T07:43:38.784Z,3.96
2023-01-21T07:44:39.118Z,3.94
2023-01-21T07:45:38.811Z,3.86
2023-01-21T07:46:39.185Z,3.92
2023-01-21T07:47:39.121Z,3.92
2023-01-21T07:48:39.100Z,3.94
2023-01-21T07:49:39.151Z,3.86
2023-01-21T07:50:39.148Z,3.87
2023-01-21T07:51:39.191Z,3.84
2023-01-21T07:52:39.164Z,3.88
2023-01-21T07:53:39.221Z,3.87
2023-01-21T07:54:39.183Z,3.91
2023-01-21T07:55:38.948Z,3.88
2023-01-21T07:56:39.210Z,3.91
2023-01-21T07:57:39.215Z,3.92
2023-01-21T07:58:39.282Z,3.87
2023-01-21T07:59:39.269Z,3.92
2023-01-21T08:00:39.327Z,3.92
2023-01-21T08:01:39.165Z,3.87
2023-01-21T08:02:39.657Z,3.91
2023-01-21T08:03:39.310Z,3.88
2023-01-21T08:04:39.314Z,3.83
2023-01-21T08:05:39.383Z,3.77
2023-01-21T08:06:39.082Z,3.86
2023-01-21T08:07:39.094Z,3.86
2023-01-21T08:08:39.380Z,3.91
2023-01-21T08:09:39.387Z,3.81
2023-01-21T08:10:39.398Z,3.86
2023-01-21T08:11:39.170Z,3.86
2023-01-21T08:12:39.163Z,3.92
2023-01-21T08:13:39.444Z,3.83
2023-01-21T08:14:39.199Z,3.84
2023-01-21T08:15:39.463Z,3.86
2023-01-21T08:16:39.785Z,3.77
2023-01-21T08:17:39.251Z,3.77
2023-01-21T08:18:39.492Z,3.83
2023-01-21T08:19:39.540Z,3.87
2023-01-21T08:20:39.287Z,3.83
2023-01-21T08:21:39.559Z,3.84
2023-01-21T08:22:39.563Z,3.83
2023-01-21T08:23:39.595Z,3.94
2023-01-21T08:24:39.575Z,3.78
2023-01-21T08:25:39.612Z,3.87
2023-01-21T08:26:39.629Z,3.87
2023-01-21T08:27:39.628Z,3.83
2023-01-21T08:28:39.385Z,3.8
2023-01-21T08:29:39.665Z,3.8
2023-01-21T08:30:39.810Z,3.81
2023-01-21T08:31:39.515Z,3.88
2023-01-21T08:32:39.746Z,3.78
2023-01-21T08:33:39.702Z,3.87
2023-01-21T08:34:39.471Z,3.84
2023-01-21T08:35:39.713Z,3.81
2023-01-21T08:36:39.769Z,3.86
2023-01-21T08:37:39.805Z,3.81
2023-01-21T08:38:39.791Z,3.86
2023-01-21T08:39:39.520Z,3.87
2023-01-21T08:40:39.282Z,3.87
2023-01-21T08:41:39.319Z,3.86
2023-01-21T08:42:39.575Z,3.81
2023-01-21T08:43:39.568Z,3.88
2023-01-21T08:44:39.839Z,3.84
2023-01-21T08:45:39.995Z,3.87
2023-01-21T08:46:39.878Z,3.78
2023-01-21T08:47:39.889Z,3.86
2023-01-21T08:48:39.685Z,3.86
2023-01-21T08:49:40.473Z,3.81
2023-01-21T08:50:39.940Z,3.87
2023-01-21T08:51:39.677Z,3.83
2023-01-21T08:52:39.975Z,3.86
2023-01-21T08:53:40.057Z,3.81
2023-01-21T08:54:39.971Z,3.83
2023-01-21T08:55:39.983Z,3.78
2023-01-21T08:56:39.997Z,3.84
2023-01-21T08:57:40.035Z,3.8
2023-01-21T08:58:39.822Z,3.87
2023-01-21T08:59:39.758Z,3.94
2023-01-21T09:00:39.859Z,3.88
2023-01-21T09:01:40.070Z,3.86
2023-01-21T09:02:40.068Z,3.86
2023-01-21T09:03:39.839Z,3.88
2023-01-21T09:04:40.151Z,3.8
2023-01-21T09:05:40.113Z,3.84
2023-01-21T09:06:39.651Z,3.86
2023-01-21T09:07:40.136Z,3.86
2023-01-21T09:08:40.156Z,3.86
2023-01-21T09:09:40.219Z,3.84
2023-01-21T09:10:40.050Z,3.8
2023-01-21T09:11:39.931Z,3.83
2023-01-21T09:12:39.956Z,3.88
2023-01-21T09:13:40.238Z,3.83
2023-01-21T09:14:40.231Z,3.86
2023-01-21T09:15:39.981Z,3.83
2023-01-21T09:16:40.452Z,3.78
2023-01-21T09:17:40.295Z,3.78
2023-01-21T09:18:40.319Z,3.81
2023-01-21T09:19:40.322Z,3.83
2023-01-21T09:20:40.439Z,3.81
2023-01-21T09:21:40.109Z,3.81
2023-01-21T09:22:40.072Z,3.8
2023-01-21T09:23:40.350Z,3.81
2023-01-21T09:24:40.380Z,3.84
2023-01-21T09:25:40.395Z,3.8
2023-01-21T09:26:40.436Z,3.81
2023-01-21T09:27:40.150Z,3.88
2023-01-21T09:28:40.151Z,3.83
2023-01-21T09:29:40.422Z,3.84
2023-01-21T09:30:40.561Z,3.88
2023-01-21T09:31:40.594Z,3.83
2023-01-21T09:32:40.536Z,3.87
2023-01-21T09:33:40.482Z,3.84
2023-01-21T09:34:40.866Z,3.78
2023-01-21T09:35:40.507Z,3.83
2023-01-21T09:36:40.592Z,3.86
2023-01-21T09:37:40.279Z,3.87
2023-01-21T09:38:40.546Z,3.74
2023-01-21T09:39:40.316Z,3.84
2023-01-21T09:40:40.582Z,3.86
2023-01-21T09:41:40.732Z,3.86
2023-01-21T09:42:40.341Z,3.84
2023-01-21T09:43:40.344Z,3.81
2023-01-21T09:44:40.364Z,3.83
2023-01-21T09:45:40.489Z,3.81
2023-01-21T09:46:40.673Z,3.74
2023-01-21T09:47:40.685Z,3.86
2023-01-21T09:48:40.699Z,3.78
2023-01-21T09:49:40.691Z,3.86
2023-01-21T09:50:40.699Z,3.81
2023-01-21T09:51:40.700Z,3.86
2023-01-21T09:52:40.806Z,3.84
2023-01-21T09:53:40.753Z,3.76
2023-01-21T09:54:40.755Z,3.86
2023-01-21T09:55:40.777Z,3.83
2023-01-21T09:56:40.521Z,3.73
2023-01-21T09:57:40.557Z,3.77
2023-01-21T09:58:40.553Z,3.83
2023-01-21T09:59:40.572Z,3.86
2023-01-21T10:00:40.560Z,3.78
2023-01-21T10:01:41.003Z,3.74
2023-01-21T10:02:40.850Z,3.8
2023-01-21T10:03:40.665Z,3.77
2023-01-21T10:04:41.105Z,3.84
2023-01-21T10:05:40.895Z,3.86
2023-01-21T10:06:40.904Z,3.8
2023-01-21T10:07:40.917Z,3.84
2023-01-21T10:08:40.987Z,3.88
2023-01-21T10:09:40.707Z,3.8
2023-01-21T10:10:40.973Z,3.86
2023-01-21T10:11:40.735Z,3.8
2023-01-21T10:12:40.979Z,3.86
2023-01-21T10:13:41.022Z,3.8
2023-01-21T10:14:41.000Z,3.86
2023-01-21T10:15:41.022Z,3.88
2023-01-21T10:16:41.184Z,3.92
2023-01-21T10:17:41.043Z,3.88
2023-01-21T10:18:40.804Z,3.77
2023-01-21T10:19:41.106Z,3.87
2023-01-21T10:20:40.845Z,3.88
2023-01-21T10:21:41.110Z,3.88
2023-01-21T10:22:41.055Z,3.83
2023-01-21T10:23:42.837Z,3.88
2023-01-21T10:24:41.224Z,3.8
2023-01-21T10:25:41.160Z,3.88
2023-01-21T10:26:41.163Z,3.88
2023-01-21T10:27:40.929Z,3.84
2023-01-21T10:28:41.395Z,3.84
2023-01-21T10:29:41.237Z,3.88
2023-01-21T10:30:41.337Z,3.86
2023-01-21T10:31:41.778Z,3.8
2023-01-21T10:32:40.982Z,3.87
2023-01-21T10:33:41.259Z,3.84
2023-01-21T10:34:41.271Z,3.78
2023-01-21T10:35:41.270Z,3.87
2023-01-21T10:36:41.296Z,3.84
2023-01-21T10:37:41.071Z,3.8
2023-01-21T10:38:41.337Z,3.83
2023-01-21T10:39:41.090Z,3.8
2023-01-21T10:40:41.172Z,3.86
2023-01-21T10:41:41.105Z,3.84
2023-01-21T10:42:41.388Z,3.88
2023-01-21T10:43:41.145Z,3.78
2023-01-21T10:44:41.415Z,3.8
2023-01-21T10:45:41.443Z,3.84
2023-01-21T10:46:41.158Z,3.86
2023-01-21T10:47:41.445Z,3.81
2023-01-21T10:48:41.460Z,3.81
2023-01-21T10:49:41.227Z,3.81
2023-01-21T10:50:41.218Z,3.83
2023-01-21T10:51:41.506Z,3.88
2023-01-21T10:52:41.516Z,3.86
2023-01-21T10:53:41.585Z,3.83
2023-01-21T10:54:41.531Z,3.83
2023-01-21T10:55:41.291Z,3.88
2023-01-21T10:56:41.603Z,3.8
2023-01-21T10:57:41.313Z,3.87
2023-01-21T10:58:41.318Z,3.96
2023-01-21T10:59:41.450Z,3.86
2023-01-21T11:00:41.629Z,3.78
2023-01-21T11:01:41.858Z,3.84
2023-01-21T11:02:41.831Z,3.83
2023-01-21T11:03:41.666Z,3.86
2023-01-21T11:04:41.690Z,3.84
2023-01-21T11:05:41.685Z,3.88
2023-01-21T11:06:41.798Z,3.83
2023-01-21T11:07:41.180Z,3.86
2023-01-21T11:08:41.562Z,3.81
2023-01-21T11:09:41.485Z,3.81
2023-01-21T11:10:41.743Z,3.86
2023-01-21T11:11:41.502Z,3.83
2023-01-21T11:12:41.812Z,3.8
2023-01-21T11:13:41.523Z,3.81
2023-01-21T11:14:42.484Z,3.8
2023-01-21T11:15:41.930Z,3.88
2023-01-21T11:16:41.866Z,3.81
2023-01-21T11:17:41.869Z,3.87
2023-01-21T11:18:41.889Z,3.83
2023-01-21T11:19:41.894Z,3.88
2023-01-21T11:20:41.952Z,3.81
2023-01-21T11:21:41.910Z,3.88
2023-01-21T11:22:41.636Z,3.88
2023-01-21T11:23:41.951Z,3.78
2023-01-21T11:24:41.662Z,3.81
2023-01-21T11:25:41.726Z,3.87
2023-01-21T11:26:41.452Z,3.84
2023-01-21T11:27:41.962Z,3.86
2023-01-21T11:28:42.395Z,3.81
2023-01-21T11:29:42.011Z,3.87
2023-01-21T11:30:58.796Z,3.84
2023-01-21T11:31:42.495Z,3.83
2023-01-21T11:32:41.768Z,3.86
2023-01-21T11:33:42.089Z,3.83
2023-01-21T11:34:42.050Z,3.87
2023-01-21T11:35:42.114Z,3.8
2023-01-21T11:36:42.082Z,3.87
2023-01-21T11:37:42.091Z,3.86
2023-01-21T11:38:42.146Z,3.77
2023-01-21T11:39:41.862Z,3.78
2023-01-21T11:40:41.896Z,3.87
2023-01-21T11:41:42.174Z,3.84
2023-01-21T11:42:42.164Z,3.83
2023-01-21T11:43:42.179Z,3.81
2023-01-21T11:44:42.279Z,3.78
2023-01-21T11:45:42.218Z,3.83
2023-01-21T11:46:41.977Z,3.84
2023-01-21T11:47:42.231Z,3.78
2023-01-21T11:48:42.231Z,3.86
2023-01-21T11:49:42.023Z,3.83
2023-01-21T11:50:42.004Z,3.92
2023-01-21T11:51:42.277Z,3.91
2023-01-21T11:52:42.047Z,3.92
2023-01-21T11:53:42.050Z,3.87
2023-01-21T11:54:42.319Z,3.92
2023-01-21T11:55:42.116Z,3.88
2023-01-21T11:56:42.369Z,3.87
2023-01-21T11:57:42.392Z,3.87
2023-01-21T11:58:42.365Z,3.88
2023-01-21T11:59:42.394Z,3.91
2023-01-21T12:00:42.326Z,3.94
2023-01-21T12:01:42.419Z,3.91
2023-01-21T12:02:42.273Z,3.88
2023-01-21T12:03:42.619Z,3.88
2023-01-21T12:04:42.489Z,3.95
2023-01-21T12:05:42.506Z,3.88
2023-01-21T12:06:42.472Z,3.88
2023-01-21T12:07:42.497Z,3.94
2023-01-21T12:08:42.758Z,3.94
2023-01-21T12:09:42.257Z,3.86
2023-01-21T12:10:42.282Z,3.87
2023-01-21T12:11:42.289Z,3.92
2023-01-21T12:12:42.546Z,3.94
2023-01-21T12:13:42.588Z,3.88
2023-01-21T12:14:42.601Z,3.94
2023-01-21T12:15:42.863Z,3.88
2023-01-21T12:16:42.671Z,3.94
2023-01-21T12:17:44.927Z,3.91
2023-01-21T12:18:42.629Z,3.87
2023-01-21T12:19:42.655Z,3.87
2023-01-21T12:20:42.661Z,3.88
2023-01-21T12:21:42.460Z,3.92
2023-01-21T12:22:42.425Z,3.99
2023-01-21T12:23:42.699Z,3.95
2023-01-21T12:24:42.718Z,3.94
2023-01-21T12:25:42.723Z,3.88
2023-01-21T12:26:42.747Z,3.96
2023-01-21T12:27:42.753Z,3.94
2023-01-21T12:28:42.992Z,3.84
2023-01-21T12:29:42.267Z,3.94
2023-01-21T12:30:42.948Z,3.94
2023-01-21T12:31:42.483Z,3.99
2023-01-21T12:32:42.922Z,3.88
2023-01-21T12:33:42.308Z,3.86
2023-01-21T12:34:42.592Z,3.87
2023-01-21T12:35:42.874Z,3.91
2023-01-21T12:36:42.879Z,3.96
2023-01-21T12:37:42.914Z,3.94
2023-01-21T12:38:42.630Z,3.95
2023-01-21T12:39:42.648Z,3.87
2023-01-21T12:40:42.934Z,3.96
2023-01-21T12:41:42.416Z,3.95
2023-01-21T12:42:42.731Z,3.94
2023-01-21T12:43:45.661Z,3.94
2023-01-21T12:44:42.721Z,3.91
2023-01-21T12:45:42.727Z,3.92
2023-01-21T12:46:43.565Z,3.92
2023-01-21T12:47:42.747Z,3.99
2023-01-21T12:48:43.098Z,4.01
2023-01-21T12:49:43.044Z,3.95
2023-01-21T12:50:43.064Z,3.94
2023-01-21T12:51:43.078Z,3.96
2023-01-21T12:52:43.083Z,3.96
2023-01-21T12:53:43.160Z,3.87
2023-01-21T12:54:43.113Z,3.91
2023-01-21T12:55:43.116Z,3.91
2023-01-21T12:56:43.160Z,3.91
2023-01-21T12:57:43.179Z,3.95
2023-01-21T12:58:42.916Z,3.95
2023-01-21T12:59:43.157Z,4.04
2023-01-21T13:00:43.317Z,3.92
2023-01-21T13:01:43.426Z,3.95
2023-01-21T13:02:43.259Z,3.96
2023-01-21T13:03:42.960Z,3.95
2023-01-21T13:04:43.318Z,3.92
2023-01-21T13:05:43.278Z,3.95
2023-01-21T13:06:58.300Z,3.92
2023-01-21T13:07:43.015Z,3.92
2023-01-21T13:08:43.031Z,3.94
2023-01-21T13:09:43.345Z,3.96
2023-01-21T13:10:43.067Z,4.05
2023-01-21T13:11:42.826Z,3.91
2023-01-21T13:12:43.337Z,3.98
2023-01-21T13:13:43.369Z,3.95
2023-01-21T13:14:43.366Z,3.96
2023-01-21T13:15:43.126Z,4.01
2023-01-21T13:16:43.676Z,3.94
2023-01-21T13:17:43.419Z,3.98
2023-01-21T13:18:43.423Z,3.94
2023-01-21T13:19:43.462Z,3.95
2023-01-21T13:20:43.511Z,3.98